Time;durP1;ratioP1;P1;durP2;ratioP2;P2;SDS_P1;SDS_P2;PMS_P1;PMS_P2;Temp;Humidity;BMP_temperature;BMP_pressure;BME280_temperature;BME280_humidity;BME280_pressure;Samples;Min_cycle;Max_cycle;Signal;HPM_P1;HPM_P2
2022/07/13 00:01:13;;;;;;;1.83;1.63;;;;;;;17.88;67.18;99973.38;4992353;28;20121;-87
2022/07/13 00:03:38;;;;;;;1.55;1.35;;;;;;;17.87;67.43;99977.81;4993777;28;20398;-87
2022/07/13 00:06:04;;;;;;;1.85;1.55;;;;;;;17.78;67.92;99973.22;4992171;28;20085;-87
2022/07/13 00:08:29;;;;;;;2.60;1.65;;;;;;;17.82;68.25;99985.19;4992306;28;20077;-87
2022/07/13 00:10:54;;;;;;;3.35;1.90;;;;;;;17.78;68.45;99978.47;4992187;28;20018;-87
2022/07/13 00:13:20;;;;;;;2.72;1.60;;;;;;;17.78;68.81;99981.13;4992491;28;20121;-87
2022/07/13 00:15:45;;;;;;;1.60;1.50;;;;;;;17.61;69.26;99955.94;4993753;28;20110;-87
2022/07/13 00:18:11;;;;;;;3.83;1.90;;;;;;;17.64;69.40;99968.88;4993308;28;20517;-87
2022/07/13 00:20:36;;;;;;;2.03;1.70;;;;;;;17.55;70.00;99960.78;4992065;28;20092;-87
2022/07/13 00:23:02;;;;;;;2.00;1.77;;;;;;;17.56;70.25;99968.56;4991817;28;20033;-86
2022/07/13 00:25:27;;;;;;;2.33;1.70;;;;;;;17.56;70.43;99971.19;4992218;28;20443;-87
2022/07/13 00:27:52;;;;;;;2.70;1.83;;;;;;;17.57;70.57;99966.75;4991877;28;20022;-87
2022/07/13 00:30:18;;;;;;;1.85;1.60;;;;;;;17.54;70.81;99965.22;4993242;28;20409;-87
2022/07/13 00:32:43;;;;;;;3.80;1.63;;;;;;;17.49;71.83;99961.19;4993300;28;20088;-87
2022/07/13 00:35:08;;;;;;;1.65;1.48;;;;;;;17.41;71.67;99961.75;4991646;28;20390;-87
2022/07/13 00:37:34;;;;;;;2.38;1.83;;;;;;;17.39;72.16;99959.22;4992035;28;20497;-87
2022/07/13 00:39:59;;;;;;;3.22;1.70;;;;;;;17.27;72.67;99951.34;4991704;28;20049;-87
2022/07/13 00:42:24;;;;;;;3.22;2.00;;;;;;;17.21;72.86;99955.25;4991914;28;20033;-87
2022/07/13 00:44:50;;;;;;;2.03;1.83;;;;;;;17.21;73.26;99952.59;4991781;28;20030;-87
2022/07/13 00:47:16;;;;;;;3.75;2.00;;;;;;;17.13;73.52;99945.22;4991462;28;20690;-87
2022/07/13 00:49:42;;;;;;;1.80;1.70;;;;;;;17.15;73.54;99953.00;4991657;28;20120;-87
2022/07/13 00:52:07;;;;;;;2.95;1.95;;;;;;;17.07;74.58;99950.09;4992511;28;20022;-87
2022/07/13 00:54:33;;;;;;;3.03;1.73;;;;;;;17.05;74.75;99954.59;4991000;28;20427;-87
2022/07/13 00:57:01;;;;;;;3.88;1.45;;;;;;;16.98;75.29;99951.56;4991390;28;20026;-87
2022/07/13 00:59:26;;;;;;;3.08;1.75;;;;;;;16.96;75.62;99953.44;4992842;28;20505;-87
2022/07/13 01:01:53;;;;;;;2.88;1.83;;;;;;;16.87;76.03;99944.41;4991445;28;20030;-87
2022/07/13 01:04:21;;;;;;;4.55;1.80;;;;;;;16.86;76.40;99947.97;4991091;28;20034;-87
2022/07/13 01:06:47;;;;;;;1.98;1.80;;;;;;;16.77;76.87;99940.72;4991197;28;20023;-87
2022/07/13 01:09:13;;;;;;;3.58;1.80;;;;;;;16.71;77.46;99947.19;4992303;28;20031;-88
2022/07/13 01:11:39;;;;;;;2.33;1.77;;;;;;;16.65;77.65;99939.72;4992703;28;20390;-88
2022/07/13 01:14:05;;;;;;;2.03;1.60;;;;;;;16.61;78.23;99935.59;4991212;28;20057;-87
2022/07/13 01:16:31;;;;;;;3.38;2.03;;;;;;;16.65;78.19;99942.34;4991121;28;20485;-86
2022/07/13 01:18:57;;;;;;;2.30;1.83;;;;;;;16.53;78.49;99922.13;4990955;28;20032;-87
2022/07/13 01:21:23;;;;;;;2.05;1.60;;;;;;;16.61;78.44;99934.78;4991226;28;20026;-87
2022/07/13 01:23:48;;;;;;;2.83;1.70;;;;;;;16.56;78.82;99940.34;4991339;28;20077;-87
2022/07/13 01:26:14;;;;;;;2.50;1.80;;;;;;;16.52;79.16;99938.84;4992450;28;20517;-87
2022/07/13 01:28:39;;;;;;;3.40;1.80;;;;;;;16.53;78.71;99935.28;4991475;28;20022;-87
2022/07/13 01:31:05;;;;;;;2.97;1.77;;;;;;;16.52;79.18;99930.09;4974607;28;20367;-87
2022/07/13 01:33:30;;;;;;;3.15;1.67;;;;;;;16.51;79.71;99941.56;4991035;28;20030;-87
2022/07/13 01:35:56;;;;;;;3.33;1.92;;;;;;;16.43;79.81;99932.44;4990974;28;20019;-87
2022/07/13 01:38:23;;;;;;;2.22;1.83;;;;;;;16.40;80.22;99934.41;4992188;28;20041;-87
2022/07/13 01:40:48;;;;;;;4.15;1.80;;;;;;;16.34;80.22;99929.53;4991066;28;20478;-86
2022/07/13 01:43:14;;;;;;;3.33;1.90;;;;;;;16.29;80.69;99931.63;4990882;28;20030;-87
2022/07/13 01:45:39;;;;;;;1.70;1.60;;;;;;;16.28;80.72;99936.06;4991005;28;20564;-87
2022/07/13 01:48:05;;;;;;;2.88;2.15;;;;;;;16.22;81.64;99928.56;4990660;28;20033;-86
2022/07/13 01:50:30;;;;;;;2.30;1.85;;;;;;;16.19;81.72;99924.34;4990745;28;20023;-86
2022/07/13 01:52:56;;;;;;;2.60;1.60;;;;;;;16.12;82.04;99915.19;4991042;28;20033;-86
2022/07/13 01:55:22;;;;;;;2.22;2.03;;;;;;;16.17;81.85;99942.00;4990831;28;20113;-86
2022/07/13 01:57:47;;;;;;;2.88;1.90;;;;;;;16.06;82.17;99917.38;4990978;28;20113;-86
2022/07/13 02:00:20;;;;;;;3.22;2.00;;;;;;;16.15;82.61;99938.63;4990551;28;20130;-86
2022/07/13 02:02:48;;;;;;;3.00;2.15;;;;;;;16.12;82.50;99927.47;4992252;28;20378;-87
2022/07/13 02:05:14;;;;;;;6.03;2.15;;;;;;;16.10;82.61;99932.00;4990722;28;20069;-87
2022/07/13 02:07:41;;;;;;;3.17;1.90;;;;;;;16.01;82.74;99925.53;4994715;28;20117;-87
2022/07/13 02:10:07;;;;;;;3.13;1.80;;;;;;;16.05;83.21;99928.81;4994302;28;20033;-86
2022/07/13 02:12:33;;;;;;;2.20;1.85;;;;;;;15.99;83.10;99923.97;4994555;28;20022;-86
2022/07/13 02:14:58;;;;;;;2.00;1.77;;;;;;;15.94;83.23;99925.09;4994255;28;20113;-87
2022/07/13 02:17:24;;;;;;;2.67;2.20;;;;;;;15.97;83.74;99921.44;4994254;28;20023;-86
2022/07/13 02:19:49;;;;;;;3.13;1.98;;;;;;;15.86;83.92;99910.78;4994592;28;20124;-86
2022/07/13 02:22:15;;;;;;;2.53;1.80;;;;;;;15.85;83.97;99917.81;4995308;28;20031;-86
2022/07/13 02:24:40;;;;;;;2.20;1.90;;;;;;;15.87;84.24;99922.97;4995687;28;20057;-86
2022/07/13 02:27:05;;;;;;;2.60;2.00;;;;;;;15.81;84.45;99912.88;4995578;28;20026;-87
2022/07/13 02:29:31;;;;;;;3.95;2.30;;;;;;;15.79;84.63;99915.56;4994265;28;20026;-87
2022/07/13 02:31:56;;;;;;;2.10;1.98;;;;;;;15.77;84.65;99908.75;4994015;28;20118;-86
2022/07/13 02:34:26;;;;;;;3.17;2.55;;;;;;;15.76;84.86;99905.28;4994228;28;20030;-86
2022/07/13 02:36:52;;;;;;;3.75;1.90;;;;;;;15.74;85.17;99911.56;4994349;28;20486;-86
2022/07/13 02:39:18;;;;;;;2.30;2.10;;;;;;;15.63;85.63;99902.56;4993993;28;20033;-86
2022/07/13 02:41:43;;;;;;;2.28;1.80;;;;;;;15.67;85.57;99911.97;4995750;28;20034;-87
2022/07/13 02:44:08;;;;;;;2.25;1.80;;;;;;;15.61;85.84;99921.97;4993766;28;20062;-87
2022/07/13 02:46:34;;;;;;;2.53;2.00;;;;;;;15.59;86.15;99914.19;4995388;28;20030;-86
2022/07/13 02:48:59;;;;;;;2.85;2.38;;;;;;;15.53;86.16;99921.59;4994106;28;20037;-86
2022/07/13 02:51:24;;;;;;;2.28;2.08;;;;;;;15.48;86.67;99917.50;4993629;28;20017;-86
2022/07/13 02:53:50;;;;;;;2.05;1.85;;;;;;;15.50;87.35;99927.88;4993848;28;20054;-87
2022/07/13 02:56:15;;;;;;;3.42;1.80;;;;;;;15.41;87.91;99923.22;4994862;28;20026;-87
2022/07/13 02:58:41;;;;;;;2.13;1.92;;;;;;;15.39;87.31;99925.94;4993951;28;20024;-87
2022/07/13 03:01:06;;;;;;;2.88;2.25;;;;;;;15.38;87.29;99929.50;4993334;28;20385;-86
2022/07/13 03:03:31;;;;;;;2.80;1.80;;;;;;;15.37;87.65;99925.19;4993806;28;20034;-86
2022/07/13 03:05:58;;;;;;;5.47;2.25;;;;;;;15.37;88.31;99919.94;4993634;28;20030;-86
2022/07/13 03:08:23;;;;;;;4.10;2.13;;;;;;;15.40;88.09;99925.00;4994594;28;20038;-87
2022/07/13 03:10:49;;;;;;;3.65;2.30;;;;;;;15.37;88.61;99922.56;4993476;28;20026;-87
2022/07/13 03:13:14;;;;;;;3.70;2.05;;;;;;;15.38;89.16;99910.28;4993153;28;20072;-87
2022/07/13 03:15:39;;;;;;;3.35;2.42;;;;;;;15.39;89.30;99928.56;4976846;28;20510;-87
2022/07/13 03:18:07;;;;;;;2.13;1.90;;;;;;;15.36;89.58;99920.88;4992350;28;20046;-86
2022/07/13 03:20:33;;;;;;;4.80;2.38;;;;;;;15.42;88.83;99922.25;4993496;28;20022;-87
2022/07/13 03:22:58;;;;;;;3.10;2.47;;;;;;;15.43;89.08;99916.94;4993358;28;20073;-87
2022/07/13 03:25:23;;;;;;;3.25;2.20;;;;;;;15.52;88.16;99914.69;4992954;28;20502;-87
2022/07/13 03:27:49;;;;;;;3.53;2.20;;;;;;;15.52;88.88;99912.06;4993155;28;20089;-87
2022/07/13 03:30:14;;;;;;;5.55;2.20;;;;;;;15.59;88.11;99915.97;4994068;28;20030;-87
2022/07/13 03:32:39;;;;;;;2.63;1.92;;;;;;;15.64;88.07;99912.16;4993193;28;20505;-87
2022/07/13 03:35:05;;;;;;;2.40;2.10;;;;;;;15.67;87.25;99905.84;4992849;28;20026;-86
2022/07/13 03:37:30;;;;;;;3.05;2.50;;;;;;;15.66;87.23;99896.28;4993032;28;20026;-87
2022/07/13 03:39:56;;;;;;;2.97;2.10;;;;;;;15.76;87.19;99907.03;4994344;28;20066;-87
2022/07/13 03:42:21;;;;;;;4.03;2.47;;;;;;;15.77;86.73;99901.72;4992755;28;20537;-87
2022/07/13 03:44:46;;;;;;;6.50;2.22;;;;;;;15.80;86.70;99898.03;4994015;28;20038;-87
2022/07/13 03:47:12;;;;;;;2.65;2.22;;;;;;;15.95;86.60;99913.66;4992466;28;20033;-86
2022/07/13 03:49:37;;;;;;;2.47;2.00;;;;;;;16.00;85.98;99904.63;4992933;28;20030;-87
2022/07/13 03:52:03;;;;;;;3.45;2.17;;;;;;;16.07;85.85;99896.25;4992889;28;20569;-87
2022/07/13 03:54:28;;;;;;;2.28;2.08;;;;;;;16.19;84.91;99891.97;4976364;28;20030;-86
2022/07/13 03:56:54;;;;;;;4.47;2.42;;;;;;;16.23;84.50;99882.13;4994208;28;20050;-87
2022/07/13 03:59:19;;;;;;;3.00;2.20;;;;;;;16.41;84.25;99892.22;4992335;28;20026;-87
2022/07/13 04:01:44;;;;;;;2.25;2.05;;;;;;;16.49;83.76;99890.88;4992672;28;20505;-87
2022/07/13 04:04:10;;;;;;;3.10;2.42;;;;;;;16.59;82.98;99899.81;4992499;28;20030;-87
2022/07/13 04:06:35;;;;;;;2.40;1.80;;;;;;;16.61;82.74;99893.53;4992510;28;20033;-87
2022/07/13 04:09:01;;;;;;;5.47;2.20;;;;;;;16.76;82.31;99914.50;4992353;28;20107;-87
2022/07/13 04:11:26;;;;;;;5.07;2.28;;;;;;;16.81;82.14;99915.03;4992040;28;20037;-87
2022/07/13 04:13:52;;;;;;;3.17;2.00;;;;;;;16.83;81.68;99908.72;4993571;28;20065;-87
2022/07/13 04:16:17;;;;;;;3.20;2.25;;;;;;;16.92;81.68;99910.72;4993566;28;20133;-86
2022/07/13 04:18:43;;;;;;;2.10;1.90;;;;;;;17.16;82.34;99910.81;4992365;28;20034;-87
2022/07/13 04:21:10;;;;;;;6.28;2.22;;;;;;;18.05;80.16;99906.28;4991991;28;20026;-87
2022/07/13 04:23:35;;;;;;;2.42;2.20;;;;;;;19.65;73.10;99904.50;4990867;28;20493;-88
2022/07/13 04:26:01;;;;;;;6.68;2.20;;;;;;;21.24;66.11;99908.03;4974655;28;20050;-87
2022/07/13 04:28:26;;;;;;;2.53;2.20;;;;;;;22.14;61.63;99908.03;4974181;28;20587;-87
2022/07/13 04:30:51;;;;;;;2.92;2.10;;;;;;;21.93;60.49;99905.47;4990675;28;20073;-87
2022/07/13 04:33:17;;;;;;;2.22;1.80;;;;;;;22.10;60.61;99915.41;4974250;28;20057;-87
2022/07/13 04:35:42;;;;;;;2.58;2.08;;;;;;;22.39;58.99;99919.91;4974375;28;20039;-88
2022/07/13 04:38:07;;;;;;;2.10;1.90;;;;;;;22.31;57.62;99909.16;4990621;28;20035;-88
2022/07/13 04:40:33;;;;;;;3.58;2.22;;;;;;;22.21;57.77;99895.91;4974134;28;20030;-88
2022/07/13 04:42:58;;;;;;;3.38;1.98;;;;;;;22.49;57.84;99904.78;4974379;28;20042;-88
2022/07/13 04:45:24;;;;;;;2.17;1.67;;;;;;;22.76;57.85;99905.88;4974071;28;20085;-88
2022/07/13 04:47:49;;;;;;;2.75;2.05;;;;;;;23.20;56.17;99907.03;4990681;28;20081;-88
2022/07/13 04:50:14;;;;;;;2.22;1.73;;;;;;;23.49;55.18;99912.19;4973938;28;20042;-88
2022/07/13 04:52:40;;;;;;;4.30;1.70;;;;;;;24.01;53.58;99911.63;4974191;28;20134;-88
2022/07/13 04:55:07;;;;;;;2.72;1.95;;;;;;;24.55;52.31;99915.97;4991471;28;20050;-88
2022/07/13 04:57:33;;;;;;;3.42;2.40;;;;;;;25.10;50.33;99912.19;4970965;28;20102;-88
2022/07/13 04:59:58;;;;;;;4.97;2.30;;;;;;;25.22;49.40;99896.75;4970842;28;20039;-88
2022/07/13 05:02:23;;;;;;;3.95;2.83;;;;;;;25.40;48.57;99894.81;4987005;28;20053;-88
2022/07/13 05:04:49;;;;;;;4.43;3.40;;;;;;;25.45;48.84;99902.34;4971243;28;20162;-88
2022/07/13 05:07:14;;;;;;;3.95;3.25;;;;;;;25.55;49.07;99903.88;4970618;28;20038;-87
2022/07/13 05:09:39;;;;;;;4.85;3.83;;;;;;;25.70;48.39;99885.41;4970823;28;20043;-88
2022/07/13 05:12:05;;;;;;;4.35;3.50;;;;;;;25.86;47.43;99893.47;4971039;28;20035;-88
2022/07/13 05:14:30;;;;;;;4.38;3.60;;;;;;;25.78;47.60;99906.81;4970234;28;20657;-88
2022/07/13 05:16:55;;;;;;;4.38;3.45;;;;;;;25.68;48.11;99902.59;4971381;28;20069;-88
2022/07/13 05:19:21;;;;;;;3.65;3.35;;;;;;;25.56;48.32;99894.03;4970367;28;20031;-88
2022/07/13 05:21:46;;;;;;;5.82;3.00;;;;;;;25.24;49.26;99905.41;4970654;28;20439;-88
2022/07/13 05:24:11;;;;;;;4.32;2.75;;;;;;;24.78;50.07;99900.31;4986519;28;20085;-88
2022/07/13 05:26:37;;;;;;;2.30;2.10;;;;;;;24.20;51.36;99892.84;4986895;28;20037;-88
2022/07/13 05:29:04;;;;;;;3.10;2.33;;;;;;;23.78;53.06;99904.09;4985227;28;20042;-87
2022/07/13 05:31:31;;;;;;;3.58;2.30;;;;;;;23.39;54.46;99908.78;4992425;28;20027;-87
2022/07/13 05:33:56;;;;;;;4.43;2.20;;;;;;;23.09;55.89;99917.81;4992664;28;20064;-87
2022/07/13 05:36:22;;;;;;;2.55;2.00;;;;;;;22.78;57.30;99914.53;4992445;28;20057;-87
2022/07/13 05:38:47;;;;;;;2.25;1.95;;;;;;;22.47;58.48;99916.56;4975118;28;20030;-88
2022/07/13 05:41:14;;;;;;;2.78;2.10;;;;;;;22.25;59.31;99918.53;4992644;28;20034;-88
2022/07/13 05:43:40;;;;;;;2.30;1.67;;;;;;;22.11;60.58;99918.88;4995003;28;20027;-88
2022/07/13 05:46:06;;;;;;;1.80;1.70;;;;;;;21.85;61.26;99890.25;4996495;28;20022;-88
2022/07/13 05:48:31;;;;;;;1.95;1.58;;;;;;;21.95;61.88;99916.78;4994995;28;20041;-88
2022/07/13 05:50:57;;;;;;;2.22;1.65;;;;;;;21.89;62.38;99907.56;4994964;28;20136;-88
2022/07/13 05:53:23;;;;;;;2.17;1.90;;;;;;;22.00;62.63;99913.72;4995968;28;20073;-88
2022/07/13 05:55:48;;;;;;;1.85;1.70;;;;;;;22.08;62.54;99900.59;4994917;28;20474;-89
2022/07/13 05:58:14;;;;;;;1.90;1.80;;;;;;;22.48;62.16;99905.78;4996332;28;20042;-88
2022/07/13 06:00:39;;;;;;;2.83;1.83;;;;;;;22.89;61.30;99919.69;4995155;28;20033;-88
2022/07/13 06:03:04;;;;;;;2.80;2.03;;;;;;;23.30;60.24;99907.84;4995093;28;20370;-88
2022/07/13 06:05:30;;;;;;;2.13;1.60;;;;;;;23.58;59.29;99884.72;4978588;28;20058;-88
2022/07/13 06:07:55;;;;;;;2.05;1.90;;;;;;;24.03;58.69;99896.34;4994732;28;20117;-88
2022/07/13 06:10:21;;;;;;;1.75;1.65;;;;;;;24.44;57.12;99913.56;4994801;28;20026;-89
2022/07/13 06:12:47;;;;;;;1.70;1.60;;;;;;;25.00;56.25;99908.78;4994512;28;20434;-88
2022/07/13 06:15:12;;;;;;;1.75;1.65;;;;;;;25.31;55.25;99917.13;4995362;28;20046;-92
2022/07/13 06:17:37;;;;;;;2.65;1.75;;;;;;;25.75;54.16;99916.97;4995148;28;20505;-89
2022/07/13 06:20:03;;;;;;;3.17;1.73;;;;;;;26.09;52.11;99915.06;4995191;28;20390;-88
2022/07/13 06:22:29;;;;;;;1.90;1.65;;;;;;;26.43;50.79;99910.56;4994532;28;20022;-89
2022/07/13 06:24:54;;;;;;;1.65;1.55;;;;;;;27.14;49.44;99912.50;4994606;28;20041;-89
2022/07/13 06:27:20;;;;;;;1.88;1.73;;;;;;;27.74;47.52;99924.47;4994165;28;20033;-89
2022/07/13 06:29:45;;;;;;;3.08;2.05;;;;;;;28.45;46.24;99927.88;4994670;28;20089;-89
2022/07/13 06:32:10;;;;;;;2.53;1.60;;;;;;;28.79;45.02;99922.88;4994475;28;20041;-88
2022/07/13 06:34:36;;;;;;;2.60;1.88;;;;;;;29.08;43.45;99929.31;4994069;28;20121;-88
2022/07/13 06:37:01;;;;;;;2.35;1.80;;;;;;;29.86;41.98;99935.06;4978194;28;20042;-88
2022/07/13 06:39:26;;;;;;;2.10;1.70;;;;;;;30.63;40.31;99926.31;4994014;28;20030;-89
2022/07/13 06:41:52;;;;;;;2.85;1.73;;;;;;;32.15;37.46;99943.31;4994201;28;20033;-90
2022/07/13 06:44:17;;;;;;;1.92;1.75;;;;;;;33.48;35.33;99940.53;4994157;28;20030;-90
2022/07/13 06:46:43;;;;;;;2.13;1.80;;;;;;;34.65;32.17;99925.72;4994275;28;20064;-89
2022/07/13 06:49:08;;;;;;;2.42;1.67;;;;;;;35.71;30.79;99940.00;4994190;28;20032;-89
2022/07/13 06:51:33;;;;;;;2.20;1.60;;;;;;;36.53;28.83;99936.72;4993509;28;20069;-90
2022/07/13 06:53:59;;;;;;;2.28;1.60;;;;;;;36.38;29.00;99934.47;4993018;28;20359;-88
2022/07/13 06:56:24;;;;;;;2.10;1.80;;;;;;;35.98;29.50;99935.06;4993705;28;20027;-87
2022/07/13 06:58:49;;;;;;;1.95;1.70;;;;;;;34.69;30.38;99924.22;4993874;28;20080;-89
2022/07/13 07:01:15;;;;;;;3.42;1.52;;;;;;;33.34;32.40;99930.81;4993952;28;20030;-88
2022/07/13 07:03:41;;;;;;;1.90;1.55;;;;;;;32.11;34.13;99927.72;4993772;28;20033;-88
2022/07/13 07:06:07;;;;;;;4.30;1.60;;;;;;;30.96;36.12;99927.41;4993853;28;20027;-89
2022/07/13 07:08:33;;;;;;;2.15;1.50;;;;;;;30.15;37.63;99926.94;4993462;28;20033;-89
2022/07/13 07:10:58;;;;;;;2.15;1.40;;;;;;;30.31;38.54;99931.22;4994834;28;20030;-89
2022/07/13 07:13:24;;;;;;;1.33;1.30;;;;;;;30.64;37.66;99938.75;4994701;28;20037;-89
2022/07/13 07:15:49;;;;;;;1.17;1.17;;;;;;;31.24;37.17;99940.00;4995104;28;20042;-89
2022/07/13 07:18:15;;;;;;;1.50;1.40;;;;;;;32.04;35.81;99939.34;4993735;28;20060;-89
2022/07/13 07:20:40;;;;;;;1.73;1.50;;;;;;;32.40;34.33;99927.38;4993334;28;20436;-90
2022/07/13 07:23:06;;;;;;;1.52;1.30;;;;;;;32.11;34.47;99933.13;4972731;28;20137;-90
2022/07/13 07:25:32;;;;;;;2.30;1.40;;;;;;;31.39;35.55;99929.94;4972567;28;20669;-90
2022/07/13 07:27:57;;;;;;;1.60;1.45;;;;;;;30.74;36.59;99918.56;4972817;28;20081;-90
2022/07/13 07:30:23;;;;;;;2.10;1.85;;;;;;;30.29;37.20;99898.31;4972589;28;20039;-90
2022/07/13 07:32:48;;;;;;;3.13;1.60;;;;;;;29.73;38.44;99920.47;4972588;28;20136;-90
2022/07/13 07:35:14;;;;;;;1.65;1.40;;;;;;;29.32;39.88;99906.72;4973287;28;20070;-90
2022/07/13 07:37:39;;;;;;;2.17;1.58;;;;;;;29.18;40.05;99911.06;4972499;28;20043;-90
2022/07/13 07:40:10;;;;;;;1.50;1.17;;;;;;;29.07;40.79;99917.72;4972597;28;20035;-90
2022/07/13 07:42:35;;;;;;;1.88;1.63;;;;;;;29.22;41.15;99911.53;4972238;28;20046;-90
2022/07/13 07:45:02;;;;;;;1.70;1.55;;;;;;;29.04;41.31;99914.59;4972634;28;20035;-88
2022/07/13 07:47:27;;;;;;;2.15;1.60;;;;;;;28.68;41.41;99917.94;4972258;28;20387;-89
2022/07/13 07:49:53;;;;;;;1.60;1.27;;;;;;;28.34;41.97;99913.84;4972367;28;20085;-90
2022/07/13 07:52:22;;;;;;;2.78;1.33;;;;;;;28.06;43.36;99892.16;4973264;28;20061;-89
2022/07/13 07:54:48;;;;;;;2.20;1.20;;;;;;;28.20;42.86;99913.81;4975039;28;20116;-89
2022/07/13 07:57:14;;;;;;;1.65;1.55;;;;;;;28.13;43.50;99913.69;4989834;28;20474;-87
2022/07/13 07:59:41;;;;;;;1.58;1.48;;;;;;;27.93;43.33;99910.63;4973193;28;20034;-91
2022/07/13 08:02:07;;;;;;;1.67;1.58;;;;;;;27.76;43.19;99925.13;4976106;28;20026;-88
2022/07/13 08:04:32;;;;;;;1.33;1.27;;;;;;;27.57;44.38;99913.00;4960452;28;20027;-87
2022/07/13 08:06:57;;;;;;;5.35;1.40;;;;;;;27.59;44.56;99917.16;4959000;28;20030;-88
2022/07/13 08:09:23;;;;;;;1.70;1.60;;;;;;;27.55;44.98;99912.31;4965153;28;20030;-87
2022/07/13 08:11:48;;;;;;;1.50;1.40;;;;;;;27.77;45.41;99908.06;4976800;28;20386;-87
2022/07/13 08:14:14;;;;;;;3.25;1.60;;;;;;;28.15;45.04;99892.06;4992451;28;20061;-88
2022/07/13 08:16:40;;;;;;;2.05;1.70;;;;;;;28.57;42.97;99905.00;4975879;28;20133;-88
2022/07/13 08:19:05;;;;;;;2.35;1.30;;;;;;;28.72;42.64;99900.47;4992427;28;20117;-87
2022/07/13 08:21:30;;;;;;;1.60;1.50;;;;;;;28.71;42.05;99890.78;4975816;28;20034;-88
2022/07/13 08:23:56;;;;;;;1.60;1.50;;;;;;;28.66;42.70;99897.72;4976014;28;20536;-90
2022/07/13 08:26:23;;;;;;;1.52;1.42;;;;;;;28.59;42.83;99898.44;4975764;28;20025;-88
2022/07/13 08:28:50;;;;;;;1.70;1.60;;;;;;;28.53;42.50;99891.13;4975910;28;20030;-86
2022/07/13 08:31:16;;;;;;;1.42;1.33;;;;;;;28.55;43.54;99912.38;4971127;28;20138;-88
2022/07/13 08:39:12;;;;;;;2.63;1.50;;;;;;;28.37;41.76;99907.34;4971833;28;20061;-89
2022/07/13 08:41:39;;;;;;;1.35;1.25;;;;;;;28.31;41.42;99916.88;4971181;28;20486;-90
2022/07/13 08:44:04;;;;;;;1.60;1.50;;;;;;;28.18;40.94;99913.16;4955141;28;20445;-88
2022/07/13 08:46:30;;;;;;;1.60;1.50;;;;;;;28.20;41.22;99913.81;4954865;28;20041;-89
2022/07/13 08:48:56;;;;;;;2.42;1.70;;;;;;;28.13;40.69;99888.75;4955040;28;20069;-88
2022/07/13 08:51:23;;;;;;;1.42;1.30;;;;;;;28.03;40.53;99902.38;4970875;28;20074;-87
2022/07/13 08:53:57;;;;;;;1.70;1.40;;;;;;;27.95;41.50;99889.88;4970829;28;20093;-88
2022/07/13 08:56:23;;;;;;;5.65;1.65;;;;;;;28.10;42.00;99901.47;4970814;28;20038;-88
2022/07/13 08:58:49;;;;;;;1.60;1.50;;;;;;;28.20;42.37;99892.38;4970799;28;20062;-89
2022/07/13 09:01:15;;;;;;;2.50;1.55;;;;;;;28.20;41.58;99895.91;4969457;28;20075;-89
2022/07/13 09:03:42;;;;;;;1.60;1.50;;;;;;;28.15;41.63;99892.06;4947888;28;20459;-89
2022/07/13 09:06:08;;;;;;;2.22;1.50;;;;;;;28.27;40.91;99901.34;4967217;28;20539;-90
2022/07/13 09:08:45;;;;;;;2.42;1.45;;;;;;;28.20;40.19;99895.91;4951019;29;20039;-89
2022/07/13 09:11:11;;;;;;;2.10;1.40;;;;;;;28.22;40.25;99893.84;4966839;28;20097;-88
2022/07/13 09:13:44;;;;;;;1.40;1.30;;;;;;;28.28;40.80;99877.09;4950772;28;20491;-89
2022/07/13 09:16:24;;;;;;;1.40;1.30;;;;;;;28.22;40.89;99885.00;4949908;28;20074;-89
2022/07/13 09:19:00;;;;;;;1.55;1.45;;;;;;;28.13;39.17;99878.88;4966928;28;20036;-88
2022/07/13 09:21:29;;;;;;;1.30;1.10;;;;;;;28.28;40.08;99884.28;4966892;28;20134;-89
2022/07/13 09:24:03;;;;;;;2.10;1.20;;;;;;;28.35;40.10;99885.22;4967234;28;20490;-90
2022/07/13 09:26:40;;;;;;;1.50;1.40;;;;;;;28.23;39.57;99852.69;4950550;28;20506;-87
2022/07/13 09:29:05;;;;;;;2.05;1.05;;;;;;;28.44;39.03;99873.44;4950753;28;20040;-89
2022/07/13 09:31:47;;;;;;;1.45;1.35;;;;;;;28.49;38.64;99886.31;4950127;28;20036;-89
2022/07/13 09:34:14;;;;;;;2.28;1.50;;;;;;;28.46;38.53;99882.13;4957796;28;20204;-89
2022/07/13 09:36:40;;;;;;;1.45;1.35;;;;;;;28.32;38.37;99886.44;4970734;28;20284;-89
2022/07/13 09:39:09;;;;;;;1.40;1.30;;;;;;;28.17;38.45;99882.03;4954871;28;20534;-89
2022/07/13 09:41:35;;;;;;;1.50;1.40;;;;;;;28.06;38.82;99888.63;4955335;28;20066;-88
2022/07/13 09:46:59;;;;;;;1.40;1.30;;;;;;;28.07;38.68;99893.00;4972744;28;20037;-89
2022/07/13 09:49:32;;;;;;;1.20;1.20;;;;;;;28.11;38.75;99883.59;4971108;28;20031;-89
2022/07/13 09:51:59;;;;;;;1.73;1.48;;;;;;;28.21;38.51;99897.56;4931407;29;20446;-88
2022/07/13 09:54:30;;;;;;;1.75;1.25;;;;;;;28.30;38.82;99890.28;4915772;29;20044;-89
2022/07/13 09:57:06;;;;;;;1.23;1.17;;;;;;;28.30;38.14;99887.59;4915831;29;20040;-88
2022/07/13 09:59:35;;;;;;;2.58;1.20;;;;;;;28.26;37.47;99886.31;4931473;29;20031;-87
2022/07/13 10:02:02;;;;;;;1.33;1.20;;;;;;;28.22;36.94;99885.00;4951096;28;20038;-88
2022/07/13 10:04:28;;;;;;;3.35;1.77;;;;;;;28.19;36.83;99883.53;4969857;28;20045;-88
2022/07/13 10:06:54;;;;;;;1.42;1.10;;;;;;;28.08;36.99;99882.09;4953623;28;20038;-89
2022/07/13 10:09:29;;;;;;;1.38;1.38;;;;;;;28.18;37.53;99873.81;4953637;28;20461;-87
2022/07/13 10:11:56;;;;;;;4.70;1.38;;;;;;;28.22;38.73;99893.03;4953683;28;20031;-88
2022/07/13 10:14:23;;;;;;;3.15;1.35;;;;;;;28.12;38.35;99881.75;4953640;28;20035;-87
2022/07/13 10:16:52;;;;;;;7.38;1.83;;;;;;;27.98;37.84;99889.53;4953138;28;20074;-89
2022/07/13 10:19:19;;;;;;;1.30;1.30;;;;;;;27.83;38.14;99888.63;4953417;28;20054;-86
2022/07/13 10:21:52;;;;;;;2.08;1.33;;;;;;;27.78;39.28;99877.63;4953360;28;20054;-89
2022/07/13 10:24:18;;;;;;;2.47;1.35;;;;;;;27.66;36.89;99869.13;4955188;28;20026;-87
2022/07/13 10:26:48;;;;;;;4.00;1.23;;;;;;;27.55;36.79;99865.00;4972795;28;20125;-88
2022/07/13 10:29:15;;;;;;;2.40;1.42;;;;;;;27.50;36.58;99880.75;4990622;28;20038;-89
2022/07/13 10:31:42;;;;;;;2.28;1.40;;;;;;;27.39;36.92;99862.44;4958387;28;20081;-88
2022/07/13 10:34:10;;;;;;;1.20;1.10;;;;;;;27.38;36.51;99863.41;4953775;29;20455;-88
2022/07/13 10:36:48;;;;;;;1.30;1.15;;;;;;;27.41;37.08;99857.72;4953789;29;20038;-88
2022/07/13 10:39:14;;;;;;;1.55;1.20;;;;;;;27.42;37.75;99851.38;4953200;29;20043;-88
2022/07/13 10:41:59;;;;;;;1.27;1.17;;;;;;;27.37;37.42;99832.34;4953438;29;20494;-89
2022/07/13 10:44:36;;;;;;;1.40;1.30;;;;;;;27.47;37.46;99856.19;4954326;29;20035;-89
2022/07/13 10:47:03;;;;;;;1.90;1.40;;;;;;;27.42;37.20;99843.34;4952792;29;20041;-89
2022/07/13 10:49:32;;;;;;;1.85;1.27;;;;;;;27.39;37.73;99840.19;4952692;29;20046;-89
2022/07/13 10:52:25;;;;;;;2.85;1.00;;;;;;;27.46;37.80;99846.50;4953912;29;20036;-88
2022/07/13 10:55:04;;;;;;;2.28;1.30;;;;;;;27.42;38.54;99851.38;4897490;29;20053;-89
2022/07/13 10:57:30;;;;;;;1.33;1.20;;;;;;;27.38;38.30;99839.34;4897482;29;20087;-89
2022/07/13 11:00:19;;;;;;;4.85;1.45;;;;;;;27.39;37.47;99845.53;4897669;29;20086;-88
2022/07/13 11:02:54;;;;;;;1.50;1.40;;;;;;;27.31;37.93;99819.69;4917045;29;20040;-88
2022/07/13 11:05:26;;;;;;;4.57;1.98;;;;;;;27.52;38.22;99837.78;4920885;29;20043;-89
2022/07/13 11:07:54;;;;;;;2.13;1.65;;;;;;;27.67;38.29;99833.31;4918880;29;20060;-89
2022/07/13 11:10:34;;;;;;;2.33;1.45;;;;;;;27.69;37.41;99819.78;4934182;29;20115;-90
2022/07/13 11:13:08;;;;;;;1.60;1.30;;;;;;;27.87;37.41;99830.22;4933837;29;20050;-89
2022/07/13 11:15:53;;;;;;;2.45;1.20;;;;;;;27.87;37.73;99812.31;4917999;29;20086;-88
2022/07/13 11:18:22;;;;;;;1.60;1.48;;;;;;;27.88;37.21;99805.94;4934231;29;20036;-89
2022/07/13 11:21:16;;;;;;;1.63;1.50;;;;;;;27.93;36.94;99826.81;4933678;29;20036;-89
2022/07/13 11:26:54;;;;;;;1.50;1.40;;;;;;;27.93;37.78;99816.94;4915428;29;20058;-89
2022/07/13 11:29:46;;;;;;;2.80;1.70;;;;;;;27.96;36.75;99811.22;4930539;29;20040;-89
2022/07/13 11:32:12;;;;;;;1.88;1.45;;;;;;;28.01;36.84;99816.03;4923687;29;20039;-90
2022/07/13 11:34:38;;;;;;;3.53;1.60;;;;;;;27.97;37.33;99799.50;4936860;29;20561;-90
2022/07/13 11:37:04;;;;;;;4.55;1.88;;;;;;;28.06;37.54;99814.50;4953342;29;20059;-89
2022/07/13 11:39:31;;;;;;;1.42;1.33;;;;;;;28.09;37.84;99811.44;4936779;29;20103;-90
2022/07/13 11:41:59;;;;;;;1.67;1.55;;;;;;;28.10;38.26;99801.56;4952731;29;20114;-90
2022/07/13 11:44:29;;;;;;;2.92;1.60;;;;;;;28.07;37.94;99789.38;4953388;29;20126;-89